createdAt,value
2019-04-14T00:00:03.356Z,99975.93
2019-04-14T00:02:42.427Z,99976.38
2019-04-14T00:05:14.810Z,99976.95
2019-04-14T00:07:44.960Z,99973.67
2019-04-14T00:10:16.203Z,99964.81
2019-04-14T00:12:45.326Z,99971.77
2019-04-14T00:15:24.675Z,99963.04
2019-04-14T00:17:45.928Z,99957.23
2019-04-14T00:20:16.426Z,99957.90
2019-04-14T00:22:46.739Z,99954.09
2019-04-14T00:25:17.063Z,99958.00
2019-04-14T00:27:47.567Z,99952.90
2019-04-14T00:30:18.798Z,99950.59
2019-04-14T00:32:55.164Z,99952.41
2019-04-14T00:35:43.334Z,99949.48
2019-04-14T00:38:34.575Z,99936.28
2019-04-14T00:41:34.566Z,99941.95
2019-04-14T00:44:06.415Z,99941.88
2019-04-14T00:46:47.520Z,99940.45
2019-04-14T00:49:17.869Z,99941.60
2019-04-14T00:51:48.432Z,99948.47
2019-04-14T00:54:17.711Z,99941.03
2019-04-14T00:56:47.658Z,99938.84
2019-04-14T00:59:17.918Z,99938.84
2019-04-14T01:01:48.290Z,99940.23
2019-04-14T01:04:18.735Z,99930.22
2019-04-14T01:06:48.939Z,99931.38
2019-04-14T01:09:19.404Z,99919.06
2019-04-14T01:11:48.817Z,99925.57
2019-04-14T01:14:18.964Z,99925.48
2019-04-14T01:16:49.413Z,99918.05
2019-04-14T01:19:19.793Z,99910.73
2019-04-14T01:21:50.214Z,99917.46
2019-04-14T01:24:20.594Z,99928.36
2019-04-14T01:26:50.681Z,99931.36
2019-04-14T01:29:20.856Z,99935.11
2019-04-14T01:31:51.449Z,99930.54
2019-04-14T01:34:21.662Z,99930.94
2019-04-14T01:36:51.816Z,99929.38
2019-04-14T01:39:22.085Z,99929.03
2019-04-14T01:41:52.091Z,99933.36
2019-04-14T01:44:22.125Z,99940.09
2019-04-14T01:46:52.073Z,99948.55
2019-04-14T01:49:22.448Z,99947.10
2019-04-14T01:52:10.621Z,99944.05
2019-04-14T01:55:06.962Z,99938.39
2019-04-14T01:57:46.657Z,99939.45
2019-04-14T02:00:25.511Z,99950.89
2019-04-14T02:02:55.371Z,99945.84
2019-04-14T02:05:25.678Z,99945.94
2019-04-14T02:07:55.855Z,99946.52
2019-04-14T02:10:25.899Z,99946.16
2019-04-14T02:12:56.287Z,99946.45
2019-04-14T02:15:26.577Z,99944.73
2019-04-14T02:17:56.702Z,99951.69
2019-04-14T02:20:27.147Z,99948.59
2019-04-14T02:22:57.366Z,99955.11
2019-04-14T02:25:27.478Z,99951.48
2019-04-14T02:27:57.925Z,99953.59
2019-04-14T02:30:35.402Z,99950.50
2019-04-14T02:33:37.053Z,99949.86
2019-04-14T02:36:06.186Z,99951.16
2019-04-14T02:38:34.211Z,99944.88
2019-04-14T02:43:35.177Z,99941.16
2019-04-14T02:45:57.850Z,99942.62
2019-04-14T02:51:10.067Z,99934.20
2019-04-14T02:53:32.561Z,99940.35
2019-04-14T02:56:11.575Z,99936.90
2019-04-14T02:58:42.120Z,99936.90
2019-04-14T03:01:07.206Z,99930.48
2019-04-14T03:06:07.106Z,99926.14
2019-04-14T03:08:45.732Z,99933.52
2019-04-14T03:13:45.038Z,99927.58
2019-04-14T03:16:19.031Z,99931.67
2019-04-14T03:18:52.124Z,99927.03
2019-04-14T03:21:49.206Z,99923.68
2019-04-14T03:24:33.729Z,99920.66
2019-04-14T03:27:32.946Z,99926.48
2019-04-14T03:30:33.658Z,99936.97
2019-04-14T03:33:13.673Z,99942.54
2019-04-14T03:37:59.233Z,99937.53
2019-04-14T03:40:21.684Z,99940.02
2019-04-14T03:42:59.673Z,99941.70
2019-04-14T03:45:25.657Z,99943.86
2019-04-14T03:48:15.035Z,99947.98
2019-04-14T03:50:28.625Z,99949.55
2019-04-14T03:52:55.763Z,99948.82
2019-04-14T03:55:16.369Z,99951.77
2019-04-14T03:57:31.214Z,99951.55
2019-04-14T04:00:00.931Z,99956.58
2019-04-14T04:02:30.074Z,99954.57
2019-04-14T04:04:59.871Z,99949.86
2019-04-14T04:07:30.021Z,99954.31
2019-04-14T04:10:07.288Z,99932.59
2019-04-14T04:12:37.793Z,99950.37
2019-04-14T04:15:08.386Z,99950.95
2019-04-14T04:17:47.285Z,99960.17
2019-04-14T04:20:45.520Z,99957.69
2019-04-14T04:23:27.138Z,99953.70
2019-04-14T04:26:01.849Z,99952.12
2019-04-14T04:28:50.029Z,99956.41
2019-04-14T04:31:35.099Z,99956.95
2019-04-14T04:34:22.732Z,99967.34
2019-04-14T04:37:14.855Z,99973.13
2019-04-14T04:39:45.605Z,99977.55
2019-04-14T04:42:15.464Z,99972.98
2019-04-14T04:44:44.724Z,99970.86
2019-04-14T04:47:14.353Z,99969.25
2019-04-14T04:49:44.627Z,99976.53
2019-04-14T04:52:15.520Z,99983.37
2019-04-14T04:54:45.031Z,99980.52
2019-04-14T04:57:15.544Z,99979.64
2019-04-14T04:59:45.291Z,99985.94
2019-04-14T05:02:15.498Z,99987.44
2019-04-14T05:04:46.019Z,99993.12
2019-04-14T05:07:15.160Z,99992.75
2019-04-14T05:10:02.682Z,99984.77
2019-04-14T05:12:47.939Z,99989.27
2019-04-14T05:15:36.492Z,99994.59
2019-04-14T05:18:05.629Z,99994.50
2019-04-14T05:20:35.624Z,100004.59
2019-04-14T05:23:05.878Z,100013.20
2019-04-14T05:25:36.457Z,100008.34
2019-04-14T05:28:06.859Z,100017.88
2019-04-14T05:30:37.177Z,100025.45
2019-04-14T05:33:07.454Z,100018.47
2019-04-14T05:35:37.949Z,100019.45
2019-04-14T05:38:08.337Z,100017.41
2019-04-14T05:40:38.609Z,100024.03
2019-04-14T05:43:08.879Z,100024.36
2019-04-14T05:45:39.428Z,100029.41
2019-04-14T05:48:09.736Z,100032.76
2019-04-14T05:50:40.082Z,100021.48
2019-04-14T05:53:09.208Z,100039.59
2019-04-14T05:55:39.465Z,100036.10
2019-04-14T05:58:09.944Z,100034.95
2019-04-14T06:00:42.126Z,100032.29
2019-04-14T06:03:12.421Z,100034.80
2019-04-14T06:05:42.754Z,100027.42
2019-04-14T06:08:11.987Z,100031.33
2019-04-14T06:10:41.169Z,100036.47
2019-04-14T06:13:11.776Z,100029.52
2019-04-14T06:15:41.106Z,100034.01
2019-04-14T06:18:10.407Z,100034.94
2019-04-14T06:20:39.638Z,100035.48
2019-04-14T06:23:08.911Z,100039.11
2019-04-14T06:25:38.263Z,100038.31
2019-04-14T06:28:07.452Z,100036.11
2019-04-14T06:30:54.575Z,100037.97
2019-04-14T06:33:32.922Z,100037.73
2019-04-14T06:36:19.480Z,100037.22
2019-04-14T06:38:51.817Z,100041.20
2019-04-14T06:41:21.213Z,100037.48
2019-04-14T06:43:50.610Z,100033.43
2019-04-14T06:46:19.989Z,100042.06
2019-04-14T06:48:49.165Z,100027.92
2019-04-14T06:51:18.288Z,100036.95
2019-04-14T06:53:47.480Z,100033.66
2019-04-14T06:56:16.635Z,100039.95
2019-04-14T06:58:45.819Z,100037.16
2019-04-14T07:01:14.930Z,100040.97
2019-04-14T07:03:44.129Z,100042.88
2019-04-14T07:06:13.394Z,100049.89
2019-04-14T07:08:42.639Z,100041.80
2019-04-14T07:11:11.758Z,100044.44
2019-04-14T07:13:40.944Z,100042.96
2019-04-14T07:16:10.104Z,100044.56
2019-04-14T07:18:39.325Z,100041.46
2019-04-14T07:21:08.495Z,100039.64
2019-04-14T07:23:37.698Z,100041.34
2019-04-14T07:26:07.078Z,100048.17
2019-04-14T07:28:36.246Z,100049.21
2019-04-14T07:31:39.567Z,100044.56
2019-04-14T07:34:26.903Z,100045.31
2019-04-14T07:37:15.020Z,100041.27
2019-04-14T07:39:54.657Z,100037.41
2019-04-14T07:42:41.588Z,100043.13
2019-04-14T07:45:32.894Z,100039.59
2019-04-14T07:48:24.097Z,100039.28
2019-04-14T07:51:11.076Z,100033.77
2019-04-14T07:54:08.370Z,100028.97
2019-04-14T07:56:55.593Z,100036.33
2019-04-14T07:59:30.011Z,100032.88
2019-04-14T08:02:30.284Z,100027.27
2019-04-14T08:05:08.529Z,100022.65
2019-04-14T08:07:37.739Z,100024.38
2019-04-14T08:10:08.298Z,100025.59
2019-04-14T08:12:37.423Z,100026.05
2019-04-14T08:15:07.216Z,100024.48
2019-04-14T08:17:36.549Z,100032.68
2019-04-14T08:20:06.584Z,100031.66
2019-04-14T08:22:35.744Z,100024.29
2019-04-14T08:25:05.332Z,100028.86
2019-04-14T08:27:34.502Z,100030.36
2019-04-14T08:30:03.907Z,100030.23
2019-04-14T08:32:33.043Z,100022.33
2019-04-14T08:35:02.270Z,100030.05
2019-04-14T08:37:31.441Z,100020.69
2019-04-14T08:40:00.752Z,100024.16
2019-04-14T08:42:38.800Z,100032.68
2019-04-14T08:45:19.639Z,100029.91
2019-04-14T08:47:58.106Z,100025.81
2019-04-14T08:50:58.480Z,100034.81
2019-04-14T08:53:35.640Z,100035.98
2019-04-14T08:56:22.750Z,100031.23
2019-04-14T08:58:57.827Z,100031.80
2019-04-14T09:01:40.935Z,100033.38
2019-04-14T09:04:18.301Z,100027.63
2019-04-14T09:06:52.344Z,100026.28
2019-04-14T09:09:27.315Z,100024.59
2019-04-14T09:12:15.463Z,100022.05
2019-04-14T09:14:39.935Z,100019.98
2019-04-14T09:17:09.136Z,100020.16
2019-04-14T09:19:38.307Z,100018.16
2019-04-14T09:22:07.463Z,100015.95
2019-04-14T09:24:36.617Z,100016.22
2019-04-14T09:27:05.758Z,100017.34
2019-04-14T09:29:34.944Z,100022.13
2019-04-14T09:32:05.853Z,100020.70
2019-04-14T09:34:35.072Z,100020.61
2019-04-14T09:37:04.256Z,100024.68
2019-04-14T09:39:33.437Z,100008.73
2019-04-14T09:42:03.210Z,100013.56
2019-04-14T09:44:32.381Z,100015.85
2019-04-14T09:47:01.620Z,100014.95
2019-04-14T09:49:30.807Z,100009.71
2019-04-14T09:52:00.010Z,100011.16
2019-04-14T09:54:29.302Z,100010.09
2019-04-14T09:56:58.461Z,100011.11
2019-04-14T09:59:27.647Z,100010.39
2019-04-14T10:01:57.080Z,100009.30
2019-04-14T10:04:26.224Z,100008.09
2019-04-14T10:06:55.425Z,100013.77
2019-04-14T10:09:24.577Z,100015.43
2019-04-14T10:11:56.379Z,100008.47
2019-04-14T10:14:24.622Z,100010.19
2019-04-14T10:16:53.838Z,100012.48
2019-04-14T10:19:23.030Z,100013.92
2019-04-14T10:21:52.360Z,100013.56
2019-04-14T10:24:21.716Z,100013.75
2019-04-14T10:26:50.951Z,100017.47
2019-04-14T10:29:20.153Z,100016.47
2019-04-14T10:31:49.391Z,100014.11
2019-04-14T10:34:18.675Z,100008.20
2019-04-14T10:36:47.962Z,100013.52
2019-04-14T10:39:17.277Z,100020.59
2019-04-14T10:41:46.684Z,100024.09
2019-04-14T10:44:15.930Z,100017.80
2019-04-14T10:46:45.135Z,100012.95
2019-04-14T10:49:14.318Z,100014.04
2019-04-14T10:51:45.005Z,100006.27
2019-04-14T10:54:14.335Z,100012.28
2019-04-14T10:56:43.510Z,100020.11
2019-04-14T10:59:12.706Z,100023.10
2019-04-14T11:01:41.965Z,100016.72
2019-04-14T11:04:11.374Z,100017.02
2019-04-14T11:06:43.894Z,100017.55
2019-04-14T11:09:15.077Z,100012.18
2019-04-14T11:11:44.815Z,100020.20
2019-04-14T11:14:13.997Z,100019.91
2019-04-14T11:16:43.146Z,100015.09
2019-04-14T11:19:12.381Z,100012.43
2019-04-14T11:21:42.889Z,100009.30
2019-04-14T11:24:12.212Z,100005.16
2019-04-14T11:26:41.571Z,99999.29
2019-04-14T11:29:11.007Z,100009.02
2019-04-14T11:32:09.877Z,100008.88
2019-04-14T11:34:55.974Z,100005.41
2019-04-14T11:37:39.912Z,100013.41
2019-04-14T11:40:11.134Z,100012.59
2019-04-14T11:42:51.781Z,100013.96
2019-04-14T11:45:11.328Z,100012.23
2019-04-14T11:47:40.528Z,100024.34
2019-04-14T11:50:09.865Z,100021.42
2019-04-14T11:52:39.054Z,100006.93
2019-04-14T11:55:08.266Z,100016.44
2019-04-14T11:57:37.467Z,100008.55
2019-04-14T12:00:26.054Z,100006.11
2019-04-14T12:03:17.053Z,100010.34
2019-04-14T12:06:08.113Z,100006.00
2019-04-14T12:08:46.445Z,100019.77
2019-04-14T12:11:15.634Z,100024.73
2019-04-14T12:13:44.781Z,100027.86
2019-04-14T12:16:13.982Z,100032.16
2019-04-14T12:18:43.245Z,100038.44
2019-04-14T12:21:12.447Z,100037.63
2019-04-14T12:23:41.649Z,100032.25
2019-04-14T12:26:10.809Z,100030.72
2019-04-14T12:28:40.483Z,100031.92
2019-04-14T12:31:10.914Z,100030.14
2019-04-14T12:33:40.176Z,100031.41
2019-04-14T12:36:12.247Z,100037.93
2019-04-14T12:38:41.625Z,100040.33
2019-04-14T12:41:15.504Z,100035.84
2019-04-14T12:43:55.249Z,100039.61
2019-04-14T12:46:36.083Z,100033.48
2019-04-14T12:49:27.292Z,100034.20
2019-04-14T12:52:21.117Z,100034.72
2019-04-14T12:54:44.820Z,100033.59
2019-04-14T12:57:15.506Z,100018.74
2019-04-14T12:59:44.692Z,100027.75
2019-04-14T13:02:25.503Z,100027.75
2019-04-14T13:04:55.484Z,100026.02
2019-04-14T13:07:24.924Z,100026.55
2019-04-14T13:09:54.404Z,100026.55
2019-04-14T13:12:23.656Z,100034.47
2019-04-14T13:14:52.857Z,100036.41
2019-04-14T13:17:22.107Z,100028.33
2019-04-14T13:19:51.499Z,100029.18
2019-04-14T13:22:32.979Z,100034.50
2019-04-14T13:24:51.722Z,100022.30
2019-04-14T13:27:23.238Z,100030.45
2019-04-14T13:29:51.898Z,100024.66
2019-04-14T13:32:21.063Z,100031.79
2019-04-14T13:34:50.217Z,100021.94
2019-04-14T13:37:19.416Z,100028.43
2019-04-14T13:39:48.644Z,100022.30
2019-04-14T13:42:17.842Z,100023.14
2019-04-14T13:44:47.071Z,100021.81
2019-04-14T13:47:16.276Z,100029.52
2019-04-14T13:49:45.413Z,100030.59
2019-04-14T13:52:14.628Z,100026.03
2019-04-14T13:54:44.286Z,100027.19
2019-04-14T13:57:13.534Z,100025.92
2019-04-14T13:59:42.751Z,100024.78
2019-04-14T14:02:11.947Z,100008.77
2019-04-14T14:04:41.139Z,100019.11
2019-04-14T14:07:10.375Z,100016.73
2019-04-14T14:09:39.635Z,100019.06
2019-04-14T14:12:23.028Z,100013.84
2019-04-14T14:15:20.211Z,100015.53
2019-04-14T14:18:01.350Z,100016.84
2019-04-14T14:20:43.880Z,100013.63
2019-04-14T14:23:28.044Z,100020.06
2019-04-14T14:26:01.327Z,100014.69
2019-04-14T14:28:30.541Z,100018.74
2019-04-14T14:30:59.855Z,100017.43
2019-04-14T14:33:29.265Z,100018.87
2019-04-14T14:35:58.435Z,100023.19
2019-04-14T14:38:27.657Z,100020.53
2019-04-14T14:40:58.612Z,100017.47
2019-04-14T14:43:27.949Z,100014.73
2019-04-14T14:46:14.770Z,100013.45
2019-04-14T14:49:09.292Z,100013.25
2019-04-14T14:51:55.993Z,100015.19
2019-04-14T14:54:25.261Z,100012.05
2019-04-14T14:56:54.497Z,100011.59
2019-04-14T14:59:23.711Z,100011.84
2019-04-14T15:01:53.074Z,100012.09
2019-04-14T15:04:22.439Z,100005.92
2019-04-14T15:06:51.741Z,100011.87
2019-04-14T15:09:20.912Z,100002.37
2019-04-14T15:11:50.201Z,99997.60
2019-04-14T15:14:19.517Z,100006.86
2019-04-14T15:16:48.877Z,100011.84
2019-04-14T15:19:18.110Z,100009.95
2019-04-14T15:21:47.304Z,100007.88
2019-04-14T15:24:16.519Z,100010.07
2019-04-14T15:26:45.720Z,100010.44
2019-04-14T15:29:14.924Z,100010.31
2019-04-14T15:31:44.100Z,100008.48
2019-04-14T15:34:13.318Z,100014.00
2019-04-14T15:36:42.484Z,100008.69
2019-04-14T15:39:11.767Z,100020.05
2019-04-14T15:41:41.026Z,100022.98
2019-04-14T15:44:10.234Z,100022.83
2019-04-14T15:46:39.475Z,100015.30
2019-04-14T15:49:08.726Z,100026.28
2019-04-14T15:51:38.044Z,100028.71
2019-04-14T15:54:07.280Z,100032.75
2019-04-14T15:57:04.600Z,100029.08
2019-04-14T15:59:58.942Z,100040.48
2019-04-14T16:02:38.683Z,100031.31
2019-04-14T16:05:35.942Z,100035.46
2019-04-14T16:08:33.102Z,100044.75
2019-04-14T16:11:07.536Z,100042.27
2019-04-14T16:13:51.981Z,100039.77
2019-04-14T16:16:52.475Z,100046.01
2019-04-14T16:19:33.227Z,100052.16
2019-04-14T16:22:02.380Z,100060.61
2019-04-14T16:24:31.597Z,100067.37
2019-04-14T16:27:18.543Z,100071.33
2019-04-14T16:29:55.361Z,100074.86
2019-04-14T16:32:49.967Z,100076.68
2019-04-14T16:35:22.194Z,100076.20
2019-04-14T16:37:51.500Z,100085.05
2019-04-14T16:40:20.743Z,100094.60
2019-04-14T16:42:50.001Z,100091.61
2019-04-14T16:45:19.658Z,100097.16
2019-04-14T16:47:48.942Z,100091.69
2019-04-14T16:50:18.332Z,100095.04
2019-04-14T16:52:52.028Z,100095.16
2019-04-14T16:55:33.034Z,100097.75
2019-04-14T16:58:16.882Z,100103.05
2019-04-14T17:00:49.969Z,100107.94
2019-04-14T17:03:19.298Z,100108.72
2019-04-14T17:05:48.537Z,100109.64
2019-04-14T17:08:17.930Z,100116.14
2019-04-14T17:10:47.197Z,100115.78
2019-04-14T17:13:16.462Z,100114.93
2019-04-14T17:16:10.465Z,100103.50
2019-04-14T17:19:10.684Z,100126.86
2019-04-14T17:21:53.374Z,100129.32
2019-04-14T17:24:56.948Z,100137.48
2019-04-14T17:27:33.628Z,100137.41
2019-04-14T17:30:20.807Z,100135.20
2019-04-14T17:33:27.511Z,100141.77
2019-04-14T17:36:14.546Z,100150.47
2019-04-14T17:39:05.484Z,100161.12
2019-04-14T17:41:40.764Z,100164.55
2019-04-14T17:44:13.955Z,100172.59
2019-04-14T17:46:52.532Z,100176.41
2019-04-14T17:49:40.421Z,100183.05
2019-04-14T17:52:35.291Z,100183.30
2019-04-14T17:55:10.313Z,100195.06
2019-04-14T17:58:04.532Z,100195.70
2019-04-14T18:01:01.940Z,100201.80
2019-04-14T18:03:50.122Z,100206.13
2019-04-14T18:06:25.593Z,100210.83
2019-04-14T18:09:16.582Z,100208.57
2019-04-14T18:11:53.070Z,100217.44
2019-04-14T18:14:53.476Z,100223.56
2019-04-14T18:17:44.724Z,100227.98
2019-04-14T18:20:18.662Z,100240.23
2019-04-14T18:22:47.895Z,100233.73
2019-04-14T18:25:17.162Z,100244.72
2019-04-14T18:27:58.763Z,100245.42
2019-04-14T18:30:34.751Z,100250.98
2019-04-14T18:33:28.766Z,100263.39
2019-04-14T18:36:16.934Z,100264.04
2019-04-14T18:39:03.879Z,100268.78
2019-04-14T18:42:07.089Z,100271.33
2019-04-14T18:45:01.038Z,100273.19
2019-04-14T18:47:44.127Z,100274.70
2019-04-14T18:50:21.342Z,100280.72
2019-04-14T18:53:09.469Z,100281.73
2019-04-14T18:55:56.352Z,100286.16
2019-04-14T18:58:53.709Z,100293.00
2019-04-14T19:01:25.595Z,100292.00
2019-04-14T19:03:55.011Z,100297.64
2019-04-14T19:06:24.489Z,100300.66
2019-04-14T19:08:54.394Z,100305.20
2019-04-14T19:11:48.651Z,100309.45
2019-04-14T19:14:30.327Z,100311.95
2019-04-14T19:17:03.759Z,100310.88
2019-04-14T19:19:34.252Z,100314.69
2019-04-14T19:22:03.620Z,100301.90
2019-04-14T19:24:32.918Z,100314.21
2019-04-14T19:27:02.320Z,100323.40
2019-04-14T19:29:31.644Z,100322.77
2019-04-14T19:32:01.830Z,100323.52
2019-04-14T19:34:31.118Z,100325.86
2019-04-14T19:37:00.390Z,100328.64
2019-04-14T19:39:29.660Z,100334.20
2019-04-14T19:41:58.914Z,100338.97
2019-04-14T19:44:28.172Z,100341.50
2019-04-14T19:46:57.470Z,100341.10
2019-04-14T19:49:26.670Z,100341.99
2019-04-14T19:51:55.903Z,100349.98
2019-04-14T19:54:25.133Z,100350.23
2019-04-14T19:56:54.417Z,100350.84
2019-04-14T19:59:23.637Z,100353.77
2019-04-14T20:01:53.183Z,100355.95
2019-04-14T20:04:22.788Z,100353.01
2019-04-14T20:06:51.953Z,100356.83
2019-04-14T20:09:21.229Z,100358.59
2019-04-14T20:11:50.392Z,100362.27
2019-04-14T20:14:19.604Z,100367.17
2019-04-14T20:17:11.604Z,100371.23
2019-04-14T20:20:06.055Z,100371.77
2019-04-14T20:22:53.131Z,100375.09
2019-04-14T20:25:35.127Z,100375.53
2019-04-14T20:28:13.261Z,100386.17
2019-04-14T20:30:46.406Z,100388.09
2019-04-14T20:33:15.591Z,100395.33
2019-04-14T20:35:44.792Z,100392.50
2019-04-14T20:38:14.028Z,100393.73
2019-04-14T20:40:43.368Z,100392.77
2019-04-14T20:43:12.831Z,100390.81
2019-04-14T20:45:41.992Z,100394.91
2019-04-14T20:48:11.178Z,100400.73
2019-04-14T20:50:40.382Z,100398.02
2019-04-14T20:53:09.607Z,100401.22
2019-04-14T20:55:46.862Z,100407.08
2019-04-14T20:58:10.083Z,100412.90
2019-04-14T21:00:39.397Z,100409.56
2019-04-14T21:03:25.756Z,100423.41
2019-04-14T21:06:09.868Z,100420.73
2019-04-14T21:09:03.047Z,100426.95
2019-04-14T21:11:57.746Z,100431.55
2019-04-14T21:14:45.889Z,100429.66
2019-04-14T21:17:49.425Z,100430.75
2019-04-14T21:20:49.637Z,100434.70
2019-04-14T21:23:31.618Z,100436.34
2019-04-14T21:26:06.758Z,100436.84
2019-04-14T21:28:59.136Z,100436.39
2019-04-14T21:31:31.676Z,100438.31
2019-04-14T21:34:19.956Z,100432.31
2019-04-14T21:37:00.280Z,100438.73
2019-04-14T21:39:36.412Z,100438.02
2019-04-14T21:42:05.749Z,100442.91
2019-04-14T21:44:34.923Z,100445.38
2019-04-14T21:47:04.594Z,100448.73
2019-04-14T21:49:33.846Z,100453.95
2019-04-14T21:52:13.838Z,100450.27
2019-04-14T21:54:44.110Z,100459.31
2019-04-14T21:57:41.074Z,100458.38
2019-04-14T22:00:43.980Z,100467.98
2019-04-14T22:03:30.860Z,100464.83
2019-04-14T22:06:06.979Z,100465.44
2019-04-14T22:08:40.761Z,100470.44
2019-04-14T22:11:13.894Z,100469.19
2019-04-14T22:13:43.122Z,100471.55
2019-04-14T22:16:12.606Z,100456.05
2019-04-14T22:18:42.071Z,100473.62
2019-04-14T22:21:11.434Z,100474.02
2019-04-14T22:23:40.605Z,100475.00
2019-04-14T22:26:10.024Z,100470.67
2019-04-14T22:28:39.502Z,100474.66
2019-04-14T22:31:09.582Z,100469.59
2019-04-14T22:33:38.746Z,100469.52
2019-04-14T22:36:08.107Z,100465.88
2019-04-14T22:38:37.249Z,100465.80
2019-04-14T22:41:06.634Z,100468.27
2019-04-14T22:43:35.868Z,100464.20
2019-04-14T22:46:05.244Z,100466.64
2019-04-14T22:48:34.766Z,100459.83
2019-04-14T22:51:03.954Z,100460.17
2019-04-14T22:53:33.094Z,100467.93
2019-04-14T22:56:02.248Z,100466.58
2019-04-14T22:58:31.361Z,100464.67
2019-04-14T23:01:04.950Z,100469.34
2019-04-14T23:03:53.036Z,100466.80
2019-04-14T23:06:53.404Z,100470.77
2019-04-14T23:09:27.765Z,100473.66
2019-04-14T23:12:14.672Z,100473.44
2019-04-14T23:14:57.886Z,100475.44
2019-04-14T23:17:31.100Z,100473.63
2019-04-14T23:20:18.114Z,100475.02
2019-04-14T23:23:06.849Z,100474.71
2019-04-14T23:25:36.958Z,100475.67
2019-04-14T23:28:06.204Z,100470.55
2019-04-14T23:30:35.520Z,100471.95
2019-04-14T23:33:04.695Z,100464.75
2019-04-14T23:35:33.831Z,100467.41
2019-04-14T23:38:03.148Z,100460.70
2019-04-14T23:40:32.361Z,100463.07
2019-04-14T23:43:01.620Z,100460.25
2019-04-14T23:45:30.866Z,100458.91
2019-04-14T23:48:00.046Z,100464.00
2019-04-14T23:50:29.172Z,100456.75
2019-04-14T23:52:58.542Z,100454.53
2019-04-14T23:55:27.665Z,100459.14
2019-04-14T23:57:56.928Z,100455.03
